sensor_id;sensor_type;location;lat;lon;timestamp;pressure;altitude;pressure_sealevel;temperature;humidity
10518;BME280;5307;42.548;22.968;2024-01-07T00:00:22;92325.63;;;5.92;100.00
10518;BME280;5307;42.548;22.968;2024-01-07T00:02:49;92336.59;;;6.07;100.00
10518;BME280;5307;42.548;22.968;2024-01-07T00:05:16;92327.22;;;5.89;100.00
10518;BME280;5307;42.548;22.968;2024-01-07T00:07:44;92314.94;;;5.79;100.00
10518;BME280;5307;42.548;22.968;2024-01-07T00:10:10;92314.91;;;6.07;100.00
10518;BME280;5307;42.548;22.968;2024-01-07T00:12:37;92308.69;;;6.15;100.00
10518;BME280;5307;42.548;22.968;2024-01-07T00:15:05;92310.06;;;6.11;100.00
10518;BME280;5307;42.548;22.968;2024-01-07T00:17:32;92309.44;;;6.16;100.00
10518;BME280;5307;42.548;22.968;2024-01-07T00:19:58;92315.03;;;6.03;100.00
10518;BME280;5307;42.548;22.968;2024-01-07T00:22:25;92312.75;;;6.20;100.00
10518;BME280;5307;42.548;22.968;2024-01-07T00:24:53;92297.38;;;6.26;100.00
10518;BME280;5307;42.548;22.968;2024-01-07T00:27:20;92295.28;;;6.21;100.00
10518;BME280;5307;42.548;22.968;2024-01-07T00:29:47;92296.25;;;6.00;100.00
10518;BME280;5307;42.548;22.968;2024-01-07T00:32:14;92285.34;;;6.18;100.00
10518;BME280;5307;42.548;22.968;2024-01-07T00:34:40;92283.97;;;6.22;100.00
10518;BME280;5307;42.548;22.968;2024-01-07T00:37:07;92282.81;;;6.05;100.00
10518;BME280;5307;42.548;22.968;2024-01-07T00:39:34;92280.66;;;6.18;100.00
10518;BME280;5307;42.548;22.968;2024-01-07T00:42:02;92276.91;;;6.16;100.00
10518;BME280;5307;42.548;22.968;2024-01-07T00:44:29;92258.00;;;6.07;100.00
10518;BME280;5307;42.548;22.968;2024-01-07T00:46:56;92253.00;;;6.14;100.00
10518;BME280;5307;42.548;22.968;2024-01-07T00:49:23;92247.75;;;6.11;100.00
10518;BME280;5307;42.548;22.968;2024-01-07T00:51:49;92251.69;;;6.01;100.00
10518;BME280;5307;42.548;22.968;2024-01-07T00:54:16;92249.88;;;6.07;100.00
10518;BME280;5307;42.548;22.968;2024-01-07T00:56:43;92251.41;;;5.99;100.00
10518;BME280;5307;42.548;22.968;2024-01-07T00:59:11;92234.66;;;6.09;100.00
10518;BME280;5307;42.548;22.968;2024-01-07T01:01:38;92227.94;;;5.95;100.00
10518;BME280;5307;42.548;22.968;2024-01-07T01:04:04;92230.94;;;5.98;100.00
10518;BME280;5307;42.548;22.968;2024-01-07T01:06:31;92234.56;;;5.94;100.00
10518;BME280;5307;42.548;22.968;2024-01-07T01:08:58;92228.84;;;5.92;100.00
10518;BME280;5307;42.548;22.968;2024-01-07T01:11:25;92216.69;;;5.70;100.00
10518;BME280;5307;42.548;22.968;2024-01-07T01:13:52;92216.59;;;5.55;100.00
10518;BME280;5307;42.548;22.968;2024-01-07T01:16:20;92205.41;;;5.71;100.00
10518;BME280;5307;42.548;22.968;2024-01-07T01:18:46;92197.84;;;5.75;100.00
10518;BME280;5307;42.548;22.968;2024-01-07T01:21:13;92193.19;;;5.24;100.00
10518;BME280;5307;42.548;22.968;2024-01-07T01:23:40;92174.22;;;5.33;100.00
10518;BME280;5307;42.548;22.968;2024-01-07T01:26:07;92156.53;;;5.23;100.00
10518;BME280;5307;42.548;22.968;2024-01-07T01:28:33;92147.06;;;5.10;100.00
10518;BME280;5307;42.548;22.968;2024-01-07T01:31:00;92144.16;;;5.31;100.00
10518;BME280;5307;42.548;22.968;2024-01-07T01:33:28;92150.31;;;5.41;100.00
10518;BME280;5307;42.548;22.968;2024-01-07T01:35:55;92161.09;;;5.50;100.00
10518;BME280;5307;42.548;22.968;2024-01-07T01:38:22;92159.91;;;5.51;100.00
10518;BME280;5307;42.548;22.968;2024-01-07T01:40:51;92140.22;;;5.42;100.00
10518;BME280;5307;42.548;22.968;2024-01-07T01:43:22;92129.47;;;5.14;100.00
10518;BME280;5307;42.548;22.968;2024-01-07T01:45:49;92131.25;;;5.26;100.00
10518;BME280;5307;42.548;22.968;2024-01-07T01:48:16;92129.13;;;5.30;100.00
10518;BME280;5307;42.548;22.968;2024-01-07T01:50:45;92126.34;;;5.49;100.00
10518;BME280;5307;42.548;22.968;2024-01-07T01:53:13;92124.50;;;5.64;100.00
10518;BME280;5307;42.548;22.968;2024-01-07T01:55:40;92126.75;;;5.65;100.00
10518;BME280;5307;42.548;22.968;2024-01-07T01:58:09;92117.63;;;5.54;100.00
10518;BME280;5307;42.548;22.968;2024-01-07T02:00:36;92102.50;;;5.38;100.00
10518;BME280;5307;42.548;22.968;2024-01-07T02:03:03;92115.00;;;5.35;100.00
10518;BME280;5307;42.548;22.968;2024-01-07T02:05:30;92107.53;;;5.54;100.00
10518;BME280;5307;42.548;22.968;2024-01-07T02:07:59;92098.97;;;5.56;100.00
10518;BME280;5307;42.548;22.968;2024-01-07T02:10:26;92111.09;;;5.70;100.00
10518;BME280;5307;42.548;22.968;2024-01-07T02:12:54;92091.63;;;5.47;100.00
10518;BME280;5307;42.548;22.968;2024-01-07T02:15:21;92089.66;;;5.48;100.00
10518;BME280;5307;42.548;22.968;2024-01-07T02:17:48;92094.41;;;5.62;100.00
10518;BME280;5307;42.548;22.968;2024-01-07T02:20:14;92076.44;;;5.50;100.00
10518;BME280;5307;42.548;22.968;2024-01-07T02:22:41;92076.75;;;5.43;100.00
10518;BME280;5307;42.548;22.968;2024-01-07T02:25:09;92077.75;;;5.54;100.00
10518;BME280;5307;42.548;22.968;2024-01-07T02:27:36;92084.84;;;5.52;100.00
10518;BME280;5307;42.548;22.968;2024-01-07T02:30:03;92097.78;;;5.48;100.00
10518;BME280;5307;42.548;22.968;2024-01-07T02:32:30;92120.53;;;5.32;100.00
10518;BME280;5307;42.548;22.968;2024-01-07T02:34:59;92113.63;;;5.40;100.00
10518;BME280;5307;42.548;22.968;2024-01-07T02:37:26;92113.06;;;5.60;100.00
10518;BME280;5307;42.548;22.968;2024-01-07T02:39:53;92120.59;;;5.65;100.00
10518;BME280;5307;42.548;22.968;2024-01-07T02:42:21;92126.47;;;5.63;100.00
10518;BME280;5307;42.548;22.968;2024-01-07T02:44:48;92142.31;;;5.47;100.00
10518;BME280;5307;42.548;22.968;2024-01-07T02:47:15;92154.78;;;5.44;100.00
10518;BME280;5307;42.548;22.968;2024-01-07T02:49:41;92173.91;;;5.50;100.00
10518;BME280;5307;42.548;22.968;2024-01-07T02:52:08;92184.44;;;5.39;100.00
10518;BME280;5307;42.548;22.968;2024-01-07T02:54:35;92187.38;;;5.59;100.00
10518;BME280;5307;42.548;22.968;2024-01-07T02:57:02;92189.94;;;5.62;100.00
10518;BME280;5307;42.548;22.968;2024-01-07T02:59:30;92210.59;;;5.51;100.00
10518;BME280;5307;42.548;22.968;2024-01-07T03:01:57;92223.06;;;5.48;100.00
10518;BME280;5307;42.548;22.968;2024-01-07T03:04:23;92215.66;;;5.58;100.00
10518;BME280;5307;42.548;22.968;2024-01-07T03:06:50;92209.91;;;5.74;100.00
10518;BME280;5307;42.548;22.968;2024-01-07T03:09:17;92211.56;;;5.72;100.00
10518;BME280;5307;42.548;22.968;2024-01-07T03:11:44;92216.56;;;5.64;100.00
10518;BME280;5307;42.548;22.968;2024-01-07T03:14:10;92205.00;;;5.63;100.00
10518;BME280;5307;42.548;22.968;2024-01-07T03:16:39;92196.34;;;5.74;100.00
10518;BME280;5307;42.548;22.968;2024-01-07T03:19:05;92189.84;;;5.90;100.00
10518;BME280;5307;42.548;22.968;2024-01-07T03:21:32;92178.25;;;5.89;100.00
10518;BME280;5307;42.548;22.968;2024-01-07T03:23:59;92165.63;;;5.86;100.00
10518;BME280;5307;42.548;22.968;2024-01-07T03:26:29;92168.94;;;5.90;100.00
10518;BME280;5307;42.548;22.968;2024-01-07T03:28:57;92159.00;;;5.97;100.00
10518;BME280;5307;42.548;22.968;2024-01-07T03:31:25;92157.44;;;6.05;100.00
10518;BME280;5307;42.548;22.968;2024-01-07T03:33:53;92150.75;;;6.15;100.00
10518;BME280;5307;42.548;22.968;2024-01-07T03:36:20;92160.09;;;6.14;100.00
10518;BME280;5307;42.548;22.968;2024-01-07T03:38:48;92157.69;;;6.16;100.00
10518;BME280;5307;42.548;22.968;2024-01-07T03:41:16;92145.63;;;6.17;100.00
10518;BME280;5307;42.548;22.968;2024-01-07T03:43:44;92145.75;;;6.22;100.00
10518;BME280;5307;42.548;22.968;2024-01-07T03:46:11;92145.00;;;6.22;100.00
10518;BME280;5307;42.548;22.968;2024-01-07T03:48:38;92129.88;;;6.30;100.00
10518;BME280;5307;42.548;22.968;2024-01-07T03:51:06;92103.44;;;6.25;100.00
10518;BME280;5307;42.548;22.968;2024-01-07T03:53:33;92093.53;;;6.22;100.00
10518;BME280;5307;42.548;22.968;2024-01-07T03:56:00;92103.72;;;6.27;100.00
10518;BME280;5307;42.548;22.968;2024-01-07T03:58:26;92098.38;;;6.33;100.00
10518;BME280;5307;42.548;22.968;2024-01-07T04:00:53;92094.41;;;6.43;100.00
10518;BME280;5307;42.548;22.968;2024-01-07T04:03:20;92077.75;;;6.35;100.00
10518;BME280;5307;42.548;22.968;2024-01-07T04:05:47;92077.22;;;6.46;100.00
10518;BME280;5307;42.548;22.968;2024-01-07T04:08:15;92067.00;;;6.41;100.00
10518;BME280;5307;42.548;22.968;2024-01-07T04:10:42;92054.97;;;6.42;100.00
10518;BME280;5307;42.548;22.968;2024-01-07T04:13:09;92054.97;;;6.42;100.00
10518;BME280;5307;42.548;22.968;2024-01-07T04:15:36;92047.94;;;6.35;100.00
10518;BME280;5307;42.548;22.968;2024-01-07T04:18:04;92060.44;;;6.33;100.00
10518;BME280;5307;42.548;22.968;2024-01-07T04:20:31;92062.72;;;6.34;100.00
10518;BME280;5307;42.548;22.968;2024-01-07T04:22:58;92060.06;;;6.25;100.00
10518;BME280;5307;42.548;22.968;2024-01-07T04:25:26;92061.00;;;6.22;100.00
10518;BME280;5307;42.548;22.968;2024-01-07T04:27:53;92060.88;;;6.16;100.00
10518;BME280;5307;42.548;22.968;2024-01-07T04:30:20;92070.16;;;6.01;100.00
10518;BME280;5307;42.548;22.968;2024-01-07T04:32:46;92078.69;;;6.08;100.00
10518;BME280;5307;42.548;22.968;2024-01-07T04:35:13;92071.44;;;6.14;100.00
10518;BME280;5307;42.548;22.968;2024-01-07T04:37:40;92083.66;;;6.10;100.00
10518;BME280;5307;42.548;22.968;2024-01-07T04:40:08;92083.09;;;6.06;100.00
10518;BME280;5307;42.548;22.968;2024-01-07T04:42:36;92096.56;;;6.15;100.00
10518;BME280;5307;42.548;22.968;2024-01-07T04:45:04;92087.63;;;6.23;100.00
10518;BME280;5307;42.548;22.968;2024-01-07T04:47:30;92071.66;;;6.02;100.00
10518;BME280;5307;42.548;22.968;2024-01-07T04:49:59;92070.28;;;6.06;100.00
10518;BME280;5307;42.548;22.968;2024-01-07T04:52:26;92065.50;;;6.01;100.00
10518;BME280;5307;42.548;22.968;2024-01-07T04:54:53;92082.09;;;5.94;100.00
10518;BME280;5307;42.548;22.968;2024-01-07T04:57:21;92072.31;;;5.97;100.00
10518;BME280;5307;42.548;22.968;2024-01-07T04:59:50;92071.38;;;6.00;100.00
10518;BME280;5307;42.548;22.968;2024-01-07T05:02:17;92076.16;;;6.05;100.00
10518;BME280;5307;42.548;22.968;2024-01-07T05:04:44;92089.59;;;5.99;100.00
10518;BME280;5307;42.548;22.968;2024-01-07T05:07:10;92084.66;;;5.88;100.00
10518;BME280;5307;42.548;22.968;2024-01-07T05:09:37;92090.38;;;5.90;100.00
10518;BME280;5307;42.548;22.968;2024-01-07T05:12:05;92100.31;;;5.84;100.00
10518;BME280;5307;42.548;22.968;2024-01-07T05:14:31;92100.47;;;6.14;100.00
10518;BME280;5307;42.548;22.968;2024-01-07T05:17:00;92095.06;;;6.14;100.00
10518;BME280;5307;42.548;22.968;2024-01-07T05:19:27;92090.81;;;6.22;100.00
10518;BME280;5307;42.548;22.968;2024-01-07T05:21:54;92087.63;;;6.23;100.00
10518;BME280;5307;42.548;22.968;2024-01-07T05:24:21;92087.44;;;6.27;100.00
10518;BME280;5307;42.548;22.968;2024-01-07T05:26:47;92085.22;;;6.25;100.00
10518;BME280;5307;42.548;22.968;2024-01-07T05:29:14;92080.53;;;6.26;100.00
10518;BME280;5307;42.548;22.968;2024-01-07T05:31:41;92076.78;;;6.23;100.00
10518;BME280;5307;42.548;22.968;2024-01-07T05:34:09;92071.25;;;6.18;100.00
10518;BME280;5307;42.548;22.968;2024-01-07T05:36:36;92064.59;;;6.19;100.00
10518;BME280;5307;42.548;22.968;2024-01-07T05:39:03;92063.69;;;6.22;100.00
10518;BME280;5307;42.548;22.968;2024-01-07T05:41:29;92058.56;;;6.24;100.00
10518;BME280;5307;42.548;22.968;2024-01-07T05:43:56;92062.59;;;6.29;100.00
10518;BME280;5307;42.548;22.968;2024-01-07T05:46:23;92050.81;;;6.32;100.00
10518;BME280;5307;42.548;22.968;2024-01-07T05:48:50;92059.25;;;6.34;100.00
10518;BME280;5307;42.548;22.968;2024-01-07T05:51:18;92058.78;;;6.35;100.00
10518;BME280;5307;42.548;22.968;2024-01-07T05:53:45;92056.63;;;6.39;100.00
10518;BME280;5307;42.548;22.968;2024-01-07T05:56:12;92050.28;;;6.42;100.00
10518;BME280;5307;42.548;22.968;2024-01-07T05:58:39;92056.66;;;6.54;100.00
10518;BME280;5307;42.548;22.968;2024-01-07T06:01:07;92049.22;;;6.64;100.00
10518;BME280;5307;42.548;22.968;2024-01-07T06:03:34;92061.72;;;6.61;100.00
10518;BME280;5307;42.548;22.968;2024-01-07T06:06:01;92064.53;;;6.67;100.00
10518;BME280;5307;42.548;22.968;2024-01-07T06:08:29;92066.38;;;6.61;100.00
10518;BME280;5307;42.548;22.968;2024-01-07T06:10:56;92071.25;;;6.57;100.00
10518;BME280;5307;42.548;22.968;2024-01-07T06:13:23;92075.47;;;6.58;100.00
10518;BME280;5307;42.548;22.968;2024-01-07T06:15:50;92073.50;;;6.58;100.00
10518;BME280;5307;42.548;22.968;2024-01-07T06:18:17;92078.16;;;6.58;100.00
10518;BME280;5307;42.548;22.968;2024-01-07T06:20:43;92076.41;;;6.54;100.00
10518;BME280;5307;42.548;22.968;2024-01-07T06:23:10;92080.13;;;6.57;100.00
10518;BME280;5307;42.548;22.968;2024-01-07T06:25:38;92089.75;;;6.58;100.00
10518;BME280;5307;42.548;22.968;2024-01-07T06:28:05;92077.81;;;6.65;100.00
10518;BME280;5307;42.548;22.968;2024-01-07T06:30:32;92082.50;;;6.64;100.00
10518;BME280;5307;42.548;22.968;2024-01-07T06:32:59;92079.59;;;6.68;100.00
10518;BME280;5307;42.548;22.968;2024-01-07T06:35:26;92082.31;;;6.68;100.00
10518;BME280;5307;42.548;22.968;2024-01-07T06:37:53;92081.75;;;6.64;100.00
10518;BME280;5307;42.548;22.968;2024-01-07T06:40:20;92084.75;;;6.66;100.00
10518;BME280;5307;42.548;22.968;2024-01-07T06:42:49;92083.13;;;6.59;100.00
10518;BME280;5307;42.548;22.968;2024-01-07T06:45:16;92093.06;;;6.62;100.00
10518;BME280;5307;42.548;22.968;2024-01-07T06:47:43;92095.13;;;6.67;100.00
10518;BME280;5307;42.548;22.968;2024-01-07T06:50:11;92092.59;;;6.64;100.00
10518;BME280;5307;42.548;22.968;2024-01-07T06:52:38;92090.44;;;6.68;100.00
10518;BME280;5307;42.548;22.968;2024-01-07T06:55:06;92089.22;;;6.69;100.00
10518;BME280;5307;42.548;22.968;2024-01-07T06:57:33;92096.16;;;6.70;100.00
10518;BME280;5307;42.548;22.968;2024-01-07T07:00:01;92098.22;;;6.75;100.00
10518;BME280;5307;42.548;22.968;2024-01-07T07:02:28;92085.97;;;6.79;100.00
10518;BME280;5307;42.548;22.968;2024-01-07T07:04:55;92096.44;;;6.87;100.00
10518;BME280;5307;42.548;22.968;2024-01-07T07:07:21;92103.84;;;6.86;100.00
10518;BME280;5307;42.548;22.968;2024-01-07T07:09:48;92106.56;;;6.86;100.00
10518;BME280;5307;42.548;22.968;2024-01-07T07:12:15;92095.63;;;6.80;100.00
10518;BME280;5307;42.548;22.968;2024-01-07T07:14:43;92104.03;;;6.82;100.00
10518;BME280;5307;42.548;22.968;2024-01-07T07:17:11;92107.13;;;6.90;100.00
10518;BME280;5307;42.548;22.968;2024-01-07T07:19:38;92102.34;;;6.85;100.00
10518;BME280;5307;42.548;22.968;2024-01-07T07:22:05;92098.13;;;6.84;100.00
10518;BME280;5307;42.548;22.968;2024-01-07T07:24:31;92098.41;;;6.86;100.00
10518;BME280;5307;42.548;22.968;2024-01-07T07:26:58;92096.84;;;6.94;100.00
10518;BME280;5307;42.548;22.968;2024-01-07T07:29:25;92091.31;;;7.03;100.00
10518;BME280;5307;42.548;22.968;2024-01-07T07:31:52;92091.16;;;7.07;100.00
10518;BME280;5307;42.548;22.968;2024-01-07T07:34:20;92087.50;;;7.10;100.00
10518;BME280;5307;42.548;22.968;2024-01-07T07:36:47;92079.44;;;7.15;100.00
10518;BME280;5307;42.548;22.968;2024-01-07T07:39:13;92075.81;;;7.19;100.00
10518;BME280;5307;42.548;22.968;2024-01-07T07:41:40;92071.47;;;7.27;100.00
10518;BME280;5307;42.548;22.968;2024-01-07T07:44:07;92071.75;;;7.29;100.00
10518;BME280;5307;42.548;22.968;2024-01-07T07:46:34;92081.13;;;7.28;100.00
10518;BME280;5307;42.548;22.968;2024-01-07T07:49:00;92071.28;;;7.30;100.00
10518;BME280;5307;42.548;22.968;2024-01-07T07:51:29;92067.91;;;7.35;100.00
10518;BME280;5307;42.548;22.968;2024-01-07T07:53:56;92073.22;;;7.44;100.00
10518;BME280;5307;42.548;22.968;2024-01-07T07:56:23;92077.00;;;7.47;100.00
10518;BME280;5307;42.548;22.968;2024-01-07T07:58:51;92064.69;;;7.52;100.00
10518;BME280;5307;42.548;22.968;2024-01-07T08:01:17;92063.47;;;7.53;100.00
10518;BME280;5307;42.548;22.968;2024-01-07T08:03:44;92058.81;;;7.53;100.00
10518;BME280;5307;42.548;22.968;2024-01-07T08:06:11;92074.72;;;7.60;100.00
10518;BME280;5307;42.548;22.968;2024-01-07T08:08:39;92067.13;;;7.64;100.00
10518;BME280;5307;42.548;22.968;2024-01-07T08:11:06;92063.72;;;7.69;100.00
10518;BME280;5307;42.548;22.968;2024-01-07T08:13:35;92056.69;;;7.78;100.00
10518;BME280;5307;42.548;22.968;2024-01-07T08:16:03;92059.41;;;7.78;100.00
10518;BME280;5307;42.548;22.968;2024-01-07T08:18:30;92057.34;;;7.72;100.00
10518;BME280;5307;42.548;22.968;2024-01-07T08:20:57;92062.69;;;8.02;100.00
10518;BME280;5307;42.548;22.968;2024-01-07T08:23:24;92060.38;;;8.15;100.00
10518;BME280;5307;42.548;22.968;2024-01-07T08:25:52;92057.25;;;8.22;100.00
10518;BME280;5307;42.548;22.968;2024-01-07T08:28:19;92057.53;;;8.24;100.00
10518;BME280;5307;42.548;22.968;2024-01-07T08:30:46;92055.66;;;8.30;100.00
10518;BME280;5307;42.548;22.968;2024-01-07T08:33:14;92047.19;;;8.28;100.00
10518;BME280;5307;42.548;22.968;2024-01-07T08:35:41;92056.97;;;8.35;100.00
10518;BME280;5307;42.548;22.968;2024-01-07T08:38:08;92057.56;;;8.45;100.00
10518;BME280;5307;42.548;22.968;2024-01-07T08:40:34;92053.25;;;8.58;100.00
10518;BME280;5307;42.548;22.968;2024-01-07T08:43:03;92052.31;;;8.61;100.00
10518;BME280;5307;42.548;22.968;2024-01-07T08:45:30;92051.38;;;8.70;100.00
10518;BME280;5307;42.548;22.968;2024-01-07T08:47:57;92049.75;;;8.78;100.00
10518;BME280;5307;42.548;22.968;2024-01-07T08:50:23;92041.16;;;8.85;99.23
10518;BME280;5307;42.548;22.968;2024-01-07T08:52:50;92040.75;;;8.92;97.02
10518;BME280;5307;42.548;22.968;2024-01-07T08:55:17;92043.00;;;9.00;94.37
10518;BME280;5307;42.548;22.968;2024-01-07T08:57:44;92041.63;;;9.10;90.57
10518;BME280;5307;42.548;22.968;2024-01-07T09:00:16;92042.38;;;9.10;91.54
10518;BME280;5307;42.548;22.968;2024-01-07T09:02:43;92040.84;;;9.04;90.40
10518;BME280;5307;42.548;22.968;2024-01-07T09:05:10;92039.41;;;9.08;89.78
10518;BME280;5307;42.548;22.968;2024-01-07T09:07:38;92043.13;;;9.11;89.92
10518;BME280;5307;42.548;22.968;2024-01-07T09:10:05;92036.50;;;9.17;89.93
10518;BME280;5307;42.548;22.968;2024-01-07T09:12:36;92032.59;;;9.24;90.82
10518;BME280;5307;42.548;22.968;2024-01-07T09:15:03;92031.38;;;9.25;87.46
10518;BME280;5307;42.548;22.968;2024-01-07T09:17:34;92028.16;;;9.27;86.46
10518;BME280;5307;42.548;22.968;2024-01-07T09:20:02;92029.38;;;9.26;85.88
10518;BME280;5307;42.548;22.968;2024-01-07T09:22:32;92032.38;;;9.28;85.18
10518;BME280;5307;42.548;22.968;2024-01-07T09:24:59;92035.84;;;9.28;85.82
10518;BME280;5307;42.548;22.968;2024-01-07T09:27:26;92040.84;;;9.35;85.58
10518;BME280;5307;42.548;22.968;2024-01-07T09:29:53;92028.91;;;9.59;86.45
10518;BME280;5307;42.548;22.968;2024-01-07T09:32:20;92038.34;;;9.63;84.92
10518;BME280;5307;42.548;22.968;2024-01-07T09:34:48;92034.91;;;9.68;83.23
10518;BME280;5307;42.548;22.968;2024-01-07T09:37:14;92036.78;;;9.57;82.79
10518;BME280;5307;42.548;22.968;2024-01-07T09:39:41;92038.97;;;9.47;81.33
10518;BME280;5307;42.548;22.968;2024-01-07T09:42:12;92037.75;;;9.48;81.93
10518;BME280;5307;42.548;22.968;2024-01-07T09:44:39;92033.47;;;9.41;83.21
10518;BME280;5307;42.548;22.968;2024-01-07T09:47:10;92037.25;;;9.49;82.80
10518;BME280;5307;42.548;22.968;2024-01-07T09:49:37;92029.69;;;9.70;81.96
10518;BME280;5307;42.548;22.968;2024-01-07T09:52:06;92032.00;;;9.77;83.90
10518;BME280;5307;42.548;22.968;2024-01-07T09:54:35;92025.88;;;9.88;83.32
10518;BME280;5307;42.548;22.968;2024-01-07T09:57:03;92029.28;;;9.83;82.32
10518;BME280;5307;42.548;22.968;2024-01-07T09:59:32;92024.91;;;9.97;82.36
10518;BME280;5307;42.548;22.968;2024-01-07T10:01:59;92025.88;;;9.88;81.99
10518;BME280;5307;42.548;22.968;2024-01-07T10:04:26;92019.88;;;9.84;81.67
10518;BME280;5307;42.548;22.968;2024-01-07T10:06:53;92019.59;;;9.76;81.68
10518;BME280;5307;42.548;22.968;2024-01-07T10:09:23;92016.63;;;9.74;81.10
10518;BME280;5307;42.548;22.968;2024-01-07T10:11:51;92003.25;;;9.82;80.22
10518;BME280;5307;42.548;22.968;2024-01-07T10:14:18;92005.47;;;9.78;81.15
10518;BME280;5307;42.548;22.968;2024-01-07T10:16:47;91999.72;;;9.70;81.00
10518;BME280;5307;42.548;22.968;2024-01-07T10:19:19;91997.28;;;9.72;81.32
10518;BME280;5307;42.548;22.968;2024-01-07T10:21:46;91979.94;;;9.75;82.20
10518;BME280;5307;42.548;22.968;2024-01-07T10:24:50;91981.94;;;9.75;81.62
10518;BME280;5307;42.548;22.968;2024-01-07T10:27:17;91982.69;;;9.81;81.60
10518;BME280;5307;42.548;22.968;2024-01-07T10:29:50;91974.56;;;9.92;81.28
10518;BME280;5307;42.548;22.968;2024-01-07T10:32:20;91974.81;;;9.94;81.54
10518;BME280;5307;42.548;22.968;2024-01-07T10:34:47;91966.38;;;9.92;80.74
10518;BME280;5307;42.548;22.968;2024-01-07T10:37:15;91973.75;;;9.80;80.17
10518;BME280;5307;42.548;22.968;2024-01-07T10:39:41;91965.53;;;9.69;79.58
10518;BME280;5307;42.548;22.968;2024-01-07T10:42:10;91947.72;;;9.74;79.94
10518;BME280;5307;42.548;22.968;2024-01-07T10:44:39;91952.97;;;9.83;80.57
10518;BME280;5307;42.548;22.968;2024-01-07T10:47:06;91942.59;;;9.87;80.89
10518;BME280;5307;42.548;22.968;2024-01-07T10:49:35;91939.41;;;10.00;80.31
10518;BME280;5307;42.548;22.968;2024-01-07T10:52:04;91939.88;;;9.93;79.08
10518;BME280;5307;42.548;22.968;2024-01-07T10:54:32;91940.31;;;10.45;78.34
10518;BME280;5307;42.548;22.968;2024-01-07T10:57:04;91937.34;;;10.54;76.05
10518;BME280;5307;42.548;22.968;2024-01-07T10:59:36;91924.97;;;10.92;74.77
10518;BME280;5307;42.548;22.968;2024-01-07T11:02:03;91925.97;;;11.06;74.38
10518;BME280;5307;42.548;22.968;2024-01-07T11:04:37;91925.47;;;10.91;75.02
10518;BME280;5307;42.548;22.968;2024-01-07T11:07:15;91924.22;;;11.09;75.17
10518;BME280;5307;42.548;22.968;2024-01-07T11:09:54;91924.00;;;11.12;74.29
10518;BME280;5307;42.548;22.968;2024-01-07T11:12:22;91919.72;;;11.39;74.23
10518;BME280;5307;42.548;22.968;2024-01-07T11:14:50;91923.47;;;11.19;73.94
10518;BME280;5307;42.548;22.968;2024-01-07T11:17:43;91924.22;;;11.31;75.20
10518;BME280;5307;42.548;22.968;2024-01-07T11:20:17;91921.75;;;11.11;74.29
10518;BME280;5307;42.548;22.968;2024-01-07T11:22:45;91928.72;;;11.00;74.38
10518;BME280;5307;42.548;22.968;2024-01-07T11:25:30;91940.13;;;10.71;74.28
10518;BME280;5307;42.548;22.968;2024-01-07T11:27:58;91938.84;;;10.66;75.38
10518;BME280;5307;42.548;22.968;2024-01-07T11:30:26;91940.38;;;10.73;75.51
10518;BME280;5307;42.548;22.968;2024-01-07T11:32:57;91943.53;;;10.55;75.37
10518;BME280;5307;42.548;22.968;2024-01-07T11:35:54;91946.03;;;10.53;75.66
10518;BME280;5307;42.548;22.968;2024-01-07T11:38:22;91933.38;;;10.50;76.30
10518;BME280;5307;42.548;22.968;2024-01-07T11:40:50;91939.28;;;10.37;76.08
10518;BME280;5307;42.548;22.968;2024-01-07T11:43:17;91937.34;;;10.49;77.09
10518;BME280;5307;42.548;22.968;2024-01-07T11:45:45;91937.34;;;10.43;78.13
10518;BME280;5307;42.548;22.968;2024-01-07T11:48:12;91937.81;;;10.30;78.43
10518;BME280;5307;42.548;22.968;2024-01-07T11:50:39;91933.09;;;10.36;78.43
10518;BME280;5307;42.548;22.968;2024-01-07T11:53:06;91923.16;;;10.28;78.31
10518;BME280;5307;42.548;22.968;2024-01-07T11:55:33;91917.22;;;10.29;78.02
10518;BME280;5307;42.548;22.968;2024-01-07T11:58:02;91917.19;;;10.24;78.27
10518;BME280;5307;42.548;22.968;2024-01-07T12:00:31;91919.22;;;10.29;78.93
10518;BME280;5307;42.548;22.968;2024-01-07T12:02:59;91919.38;;;10.20;78.48
10518;BME280;5307;42.548;22.968;2024-01-07T12:05:27;91921.59;;;10.10;78.90
10518;BME280;5307;42.548;22.968;2024-01-07T12:07:53;91912.16;;;10.05;79.86
10518;BME280;5307;42.548;22.968;2024-01-07T12:10:20;91921.31;;;10.02;79.50
10518;BME280;5307;42.548;22.968;2024-01-07T12:12:47;91924.81;;;10.08;80.65
10518;BME280;5307;42.548;22.968;2024-01-07T12:15:15;91927.28;;;10.01;81.41
10518;BME280;5307;42.548;22.968;2024-01-07T12:17:42;91922.06;;;10.03;81.39
10518;BME280;5307;42.548;22.968;2024-01-07T12:20:11;91927.00;;;9.93;81.38
10518;BME280;5307;42.548;22.968;2024-01-07T12:22:38;91922.47;;;9.79;81.25
10518;BME280;5307;42.548;22.968;2024-01-07T12:25:06;91929.66;;;9.82;81.73
10518;BME280;5307;42.548;22.968;2024-01-07T12:27:34;91928.66;;;9.79;81.43
10518;BME280;5307;42.548;22.968;2024-01-07T12:30:01;91933.59;;;9.75;81.99
10518;BME280;5307;42.548;22.968;2024-01-07T12:32:29;91930.38;;;9.71;82.61
10518;BME280;5307;42.548;22.968;2024-01-07T12:34:57;91937.75;;;9.60;82.45
10518;BME280;5307;42.548;22.968;2024-01-07T12:37:27;91946.13;;;9.56;83.47
10518;BME280;5307;42.548;22.968;2024-01-07T12:39:54;91937.69;;;9.54;84.03
10518;BME280;5307;42.548;22.968;2024-01-07T12:42:21;91935.22;;;9.50;83.57
10518;BME280;5307;42.548;22.968;2024-01-07T12:44:48;91941.91;;;9.49;84.68
10518;BME280;5307;42.548;22.968;2024-01-07T12:47:16;91945.84;;;9.48;84.83
10518;BME280;5307;42.548;22.968;2024-01-07T12:49:42;91946.59;;;9.49;84.95
10518;BME280;5307;42.548;22.968;2024-01-07T12:52:09;91941.63;;;9.47;85.18
10518;BME280;5307;42.548;22.968;2024-01-07T12:54:38;91945.34;;;9.44;85.79
10518;BME280;5307;42.548;22.968;2024-01-07T12:57:05;91937.63;;;9.43;86.11
10518;BME280;5307;42.548;22.968;2024-01-07T12:59:31;91949.56;;;9.45;86.24
10518;BME280;5307;42.548;22.968;2024-01-07T13:01:58;91955.25;;;9.47;87.44
10518;BME280;5307;42.548;22.968;2024-01-07T13:04:25;91960.44;;;9.45;87.55